createdAt,value
2017-06-12T00:02:03.021Z,22.8
2017-06-12T00:07:02.834Z,22.5
2017-06-12T00:12:02.800Z,22.4
2017-06-12T00:17:03.508Z,22.4
2017-06-12T00:22:03.229Z,22.4
2017-06-12T00:27:03.450Z,22.3
2017-06-12T00:32:03.439Z,22.2
2017-06-12T00:37:03.090Z,22.1
2017-06-12T00:42:02.765Z,22.0
2017-06-12T00:47:03.405Z,21.9
2017-06-12T00:52:03.279Z,21.7
2017-06-12T00:57:03.030Z,21.6
2017-06-12T01:02:02.757Z,21.6
2017-06-12T01:07:03.170Z,21.5
2017-06-12T01:12:03.187Z,21.4
2017-06-12T01:17:02.829Z,21.3
2017-06-12T01:22:03.079Z,21.2
2017-06-12T01:27:02.787Z,21.1
2017-06-12T01:32:03.912Z,21.0
2017-06-12T01:37:03.286Z,21.0
2017-06-12T01:42:02.914Z,20.9
2017-06-12T01:47:02.936Z,20.8
2017-06-12T01:52:03.503Z,20.7
2017-06-12T01:57:03.164Z,20.6
2017-06-12T02:02:02.986Z,20.5
2017-06-12T02:07:02.912Z,20.5
2017-06-12T02:12:03.011Z,20.4
2017-06-12T02:17:03.140Z,20.3
2017-06-12T02:22:03.242Z,20.3
2017-06-12T02:27:03.489Z,20.2
2017-06-12T02:32:04.959Z,20.0
2017-06-12T02:37:03.160Z,20.0
2017-06-12T02:42:03.525Z,20.0
2017-06-12T02:47:13.751Z,19.9
2017-06-12T02:52:03.367Z,19.9
2017-06-12T02:57:02.956Z,19.9
2017-06-12T03:02:13.744Z,19.8
2017-06-12T03:07:02.849Z,19.8
2017-06-12T03:12:03.143Z,19.8
2017-06-12T03:17:12.666Z,19.7
2017-06-12T03:22:03.386Z,19.6
2017-06-12T03:27:02.953Z,19.4
2017-06-12T03:37:02.866Z,19.5
2017-06-12T03:42:03.230Z,19.5
2017-06-12T03:47:18.169Z,19.6
2017-06-12T03:52:02.997Z,19.6
2017-06-12T03:57:03.429Z,19.5
2017-06-12T04:02:22.645Z,19.5
2017-06-12T04:07:03.268Z,19.5
2017-06-12T04:12:02.905Z,19.5
2017-06-12T04:17:13.782Z,19.5
2017-06-12T04:22:02.756Z,19.5
2017-06-12T04:27:03.263Z,19.6
2017-06-12T04:32:14.115Z,19.6
2017-06-12T04:37:03.614Z,20.0
2017-06-12T04:42:02.915Z,20.0
2017-06-12T04:47:14.059Z,20.2
2017-06-12T04:52:02.710Z,20.4
2017-06-12T04:57:03.144Z,20.5
2017-06-12T05:02:17.478Z,20.6
2017-06-12T05:07:03.191Z,20.6
2017-06-12T05:12:02.781Z,20.6
2017-06-12T05:17:13.684Z,20.9
2017-06-12T05:22:02.744Z,21.2
2017-06-12T05:27:03.194Z,21.6
2017-06-12T05:32:14.017Z,21.9
2017-06-12T05:37:02.926Z,21.9
2017-06-12T05:42:03.362Z,22.2
2017-06-12T05:47:13.085Z,22.4
2017-06-12T05:52:02.633Z,22.4
2017-06-12T05:57:03.081Z,22.5
2017-06-12T06:02:13.965Z,22.8
2017-06-12T06:07:03.080Z,22.7
2017-06-12T06:12:03.559Z,22.7
2017-06-12T06:17:13.427Z,22.9
2017-06-12T06:22:02.788Z,22.9
2017-06-12T06:27:03.485Z,23.6
2017-06-12T06:32:16.728Z,24.1
2017-06-12T06:37:02.976Z,25.3
2017-06-12T06:42:03.410Z,25.5
2017-06-12T06:47:13.128Z,25.5
2017-06-12T06:52:03.473Z,25.5
2017-06-12T06:57:02.906Z,25.5
2017-06-12T07:02:23.099Z,25.7
2017-06-12T07:07:02.630Z,26.7
2017-06-12T07:12:02.950Z,26.7
2017-06-12T07:17:13.812Z,27.2
2017-06-12T07:22:03.027Z,27.6
2017-06-12T07:27:03.434Z,27.9
2017-06-12T07:32:13.009Z,27.5
2017-06-12T07:37:03.072Z,27.4
2017-06-12T07:42:03.441Z,27.4
2017-06-12T07:52:03.286Z,27.2
2017-06-12T07:57:02.598Z,26.9
2017-06-12T08:02:13.353Z,26.5
2017-06-12T08:07:03.362Z,26.6
2017-06-12T08:12:02.783Z,26.6
2017-06-12T08:22:03.349Z,27.2
2017-06-12T08:27:03.609Z,27.1
2017-06-12T08:37:03.230Z,27.0
2017-06-12T08:42:03.495Z,26.9
2017-06-12T08:47:17.413Z,27.0
2017-06-12T08:52:03.009Z,27.0
2017-06-12T08:57:03.375Z,27.1
2017-06-12T09:02:11.848Z,27.1
2017-06-12T09:07:03.349Z,27.1
2017-06-12T09:12:03.387Z,27.1
2017-06-12T09:17:12.977Z,27.7
2017-06-12T09:22:03.350Z,27.9
2017-06-12T09:27:02.825Z,27.8
2017-06-12T09:32:17.745Z,28.2
2017-06-12T09:37:03.049Z,28.5
2017-06-12T09:42:03.463Z,28.4
2017-06-12T09:47:13.110Z,28.5
2017-06-12T09:52:02.766Z,28.3
2017-06-12T09:57:03.230Z,28.1
2017-06-12T10:02:12.772Z,29.0
2017-06-12T10:07:02.771Z,29.2
2017-06-12T10:12:03.376Z,28.9
2017-06-12T10:17:17.206Z,28.8
2017-06-12T10:22:03.159Z,28.7
2017-06-12T10:27:03.481Z,28.7
2017-06-12T10:32:13.207Z,28.8
2017-06-12T10:37:02.804Z,28.8
2017-06-12T10:42:03.185Z,28.3
2017-06-12T10:47:14.023Z,27.8
2017-06-12T10:52:02.704Z,27.7
2017-06-12T10:57:03.157Z,27.6
2017-06-12T11:02:17.194Z,27.4
2017-06-12T11:07:03.114Z,27.3
2017-06-12T11:12:02.745Z,27.3
2017-06-12T11:17:17.141Z,27.2
2017-06-12T11:22:03.417Z,27.4
2017-06-12T11:27:02.874Z,27.3
2017-06-12T11:32:17.613Z,27.8
2017-06-12T11:37:03.352Z,28.0
2017-06-12T11:42:02.733Z,28.0
2017-06-12T11:47:17.308Z,28.3
2017-06-12T11:52:02.726Z,28.1
2017-06-12T11:57:03.256Z,28.1
2017-06-12T12:02:12.379Z,28.0
2017-06-12T12:07:03.004Z,28.2
2017-06-12T12:12:03.555Z,28.2
2017-06-12T12:17:14.023Z,28.5
2017-06-12T12:22:03.023Z,28.2
2017-06-12T12:27:03.474Z,28.2
2017-06-12T12:32:13.222Z,28.6
2017-06-12T12:37:02.888Z,28.6
2017-06-12T12:42:02.925Z,29.1
2017-06-12T12:47:17.094Z,29.0
2017-06-12T12:52:02.645Z,28.9
2017-06-12T12:57:03.115Z,28.6
2017-06-12T13:02:16.174Z,28.5
2017-06-12T13:07:02.895Z,28.5
2017-06-12T13:12:03.491Z,28.5
2017-06-12T13:17:16.913Z,28.6
2017-06-12T13:22:03.455Z,28.7
2017-06-12T13:27:02.941Z,28.7
2017-06-12T13:32:17.422Z,28.7
2017-06-12T13:37:03.445Z,28.8
2017-06-12T13:42:03.446Z,28.8
2017-06-12T13:47:16.669Z,28.8
2017-06-12T13:52:03.358Z,28.7
2017-06-12T13:57:02.791Z,28.6
2017-06-12T14:02:13.528Z,28.6
2017-06-12T14:12:07.351Z,28.9
2017-06-12T14:17:09.026Z,29.0
2017-06-12T14:22:03.494Z,29.6
2017-06-12T14:27:03.673Z,29.6
2017-06-12T14:32:11.969Z,30.3
2017-06-12T14:37:02.719Z,30.2
2017-06-12T14:42:03.212Z,31.5
2017-06-12T14:47:13.293Z,33.0
2017-06-12T14:52:02.661Z,33.0
2017-06-12T14:57:02.781Z,34.5
2017-06-12T15:02:10.904Z,38.0
2017-06-12T15:07:03.055Z,38.0
2017-06-12T15:12:03.606Z,40.0
2017-06-12T15:17:11.701Z,41.6
2017-06-12T15:22:02.882Z,44.1
2017-06-12T15:27:03.596Z,44.8
2017-06-12T15:32:13.384Z,44.8
2017-06-12T15:37:02.743Z,45.4
2017-06-12T15:42:03.142Z,45.4
2017-06-12T15:47:03.501Z,46.1
2017-06-12T15:52:02.710Z,47.0
2017-06-12T15:57:03.120Z,47.0
2017-06-12T16:02:17.912Z,47.2
2017-06-12T16:07:03.274Z,48.5
2017-06-12T16:12:02.835Z,48.4
2017-06-12T16:17:17.762Z,48.6
2017-06-12T16:22:03.536Z,48.4
2017-06-12T16:27:02.888Z,47.6
2017-06-12T16:37:03.504Z,47.4
2017-06-12T16:42:02.759Z,47.8
2017-06-12T16:52:03.042Z,47.6
2017-06-12T16:57:03.400Z,47.6
2017-06-12T17:02:15.802Z,47.0
2017-06-12T17:07:03.380Z,47.4
2017-06-12T17:12:02.871Z,47.9
2017-06-12T17:17:15.658Z,47.3
2017-06-12T17:22:03.615Z,47.6
2017-06-12T17:27:02.946Z,47.6
2017-06-12T17:32:11.853Z,47.2
2017-06-12T17:37:03.378Z,47.2
2017-06-12T17:42:02.679Z,46.8
2017-06-12T17:47:12.808Z,46.6
2017-06-12T17:52:02.999Z,46.2
2017-06-12T17:57:03.310Z,46.2
2017-06-12T18:02:12.390Z,45.7
2017-06-12T18:07:03.265Z,44.7
2017-06-12T18:12:03.645Z,43.6
2017-06-12T18:17:13.548Z,34.4
2017-06-12T18:22:03.437Z,34.2
2017-06-12T18:27:02.802Z,31.4
2017-06-12T18:32:13.699Z,32.8
2017-06-12T18:37:03.480Z,29.4
2017-06-12T18:42:02.800Z,27.1
2017-06-12T18:47:13.665Z,25.8
2017-06-12T18:52:02.715Z,24.3
2017-06-12T18:57:03.155Z,24.3
2017-06-12T19:02:13.983Z,23.4
2017-06-12T19:07:03.254Z,23.4
2017-06-12T19:12:02.734Z,23.1
2017-06-12T19:17:13.697Z,22.8
2017-06-12T19:22:02.745Z,22.2
2017-06-12T19:27:03.174Z,22.1
2017-06-12T19:32:13.756Z,21.9
2017-06-12T19:37:02.938Z,21.6
2017-06-12T19:42:03.585Z,21.4
2017-06-12T19:47:13.105Z,21.2
2017-06-12T19:52:03.036Z,20.8
2017-06-12T19:57:03.364Z,20.6
2017-06-12T20:02:13.422Z,20.6
2017-06-12T20:07:03.238Z,20.4
2017-06-12T20:12:02.855Z,20.3
2017-06-12T20:17:11.618Z,20.0
2017-06-12T20:22:03.592Z,20.0
2017-06-12T20:27:02.981Z,19.9
2017-06-12T20:32:10.510Z,19.8
2017-06-12T20:37:02.770Z,19.7
2017-06-12T20:42:03.091Z,19.7
2017-06-12T20:47:05.487Z,19.6
2017-06-12T20:52:03.443Z,19.5
2017-06-12T20:57:02.810Z,19.3
2017-06-12T21:02:03.055Z,19.2
2017-06-12T21:07:03.429Z,19.1
2017-06-12T21:12:02.913Z,19.0
2017-06-12T21:17:03.148Z,18.9
2017-06-12T21:22:03.509Z,18.9
2017-06-12T21:27:02.919Z,18.8
2017-06-12T21:32:03.480Z,18.8
2017-06-12T21:37:03.425Z,18.7
2017-06-12T21:42:02.784Z,18.6
2017-06-12T21:47:03.078Z,18.5
2017-06-12T21:52:03.397Z,18.4
2017-06-12T21:57:03.578Z,18.3
2017-06-12T22:02:03.082Z,17.8
2017-06-12T22:07:03.481Z,17.6
2017-06-12T22:12:02.799Z,17.5
2017-06-12T22:22:03.132Z,16.9
2017-06-12T22:27:03.471Z,16.9
2017-06-12T22:32:03.056Z,16.7
2017-06-12T22:37:03.344Z,16.5
2017-06-12T22:42:02.945Z,16.3
2017-06-12T22:47:03.430Z,16.2
2017-06-12T22:52:02.931Z,16.0
2017-06-12T22:57:03.356Z,16.0
2017-06-12T23:02:02.842Z,15.9
2017-06-12T23:07:03.210Z,15.9
2017-06-12T23:12:03.315Z,15.9
2017-06-12T23:17:03.216Z,15.8
2017-06-12T23:22:02.689Z,15.7
2017-06-12T23:27:03.351Z,15.7
2017-06-12T23:32:02.986Z,15.6
2017-06-12T23:37:03.597Z,15.5
2017-06-12T23:42:03.539Z,15.3
2017-06-12T23:47:03.368Z,15.3
2017-06-12T23:52:03.253Z,15.1
2017-06-12T23:57:02.988Z,15.1
